Aérodrome :
LOGIN :

S'inscrire | Disclaimer

   EN    FR    IT 

 










Légende :    VFR   VFR Marginal   IFR   IFR Intensif   IFR Très Intensif
Visi : 
Plafond : 
>= 8 km
>= 3000ft
5 à 8 km
1000 à 3000 ft
1500m à 5 km
500 à 1000 ft
800 à 1500m
200 à 500 ft
< 800m
< 200 ft
Symboles :   Orages  Brouillard  Fortes neiges  Fortes précipitations  Vent > 20 kt
SIGMETs :   Divers  Orages  Givrage  Turbulence  Onde Orograph.  Cendres Volcan.






- Altitude de l'aérodrome : 306 ft
- Code IATA : EMA


EGNX - Nottingham East Midlands

DERNIER METAR :
  • 251550Z 18008KT 7000 DZ BKN010 06/05 Q1015

METARs EXPIRÉS :
  • 251520Z 19008KT 8000 FEW012 BKN027 06/04 Q1015
  • 251450Z 19007KT 9000 FEW012 BKN024 06/04 Q1015
  • 251420Z 20008KT 9000 SCT010 BKN026 06/04 Q1015
  • 251350Z 20007KT 9999 SCT010 BKN023 06/04 Q1016
  • 251320Z 20009KT 8000 SCT010 BKN022 06/04 Q1016

TAF AMD TAF EGNX
Valide du 25 à 14h jusqu'au 26 à 12h UTC


251403Z 2514/2612 20009KT 9999 SCT010 BKN020
BECMG 2514/2517 6000 BKN010
TEMPO 2516/2606 3000 -DZ BR BKN006
PROB40
TEMPO 2516/2604 1200 DZ BR BKN004
PROB30
TEMPO 2606/2612 9999 SCT010 BKN016
TEMPO 2610/2612 18015G25KT RA
ATIS : +44 1332 852 852 (ext 3201)



MET'MAP, la Météo Aéronautique d'un coup d'oeil ! - Copyright ORBIFLY Décembre 2007 - Disclaimer

ORBIFLY MET'MAP TEAM :

Programmation & Développement : Alexandra Zaïnal
Sur une idée originale de : Baudouin d'Aumeries
Assistance à la programmation : Marc-Olivier Méhu
Soutien technique & logistique : Manuel Goepfert

Contact : metmap@orbifly.com




SOURCES & CREDITS :

   NOAA